createdAt,value
2022-11-22T00:01:20.514Z,1.23
2022-11-22T00:03:48.710Z,1.03
2022-11-22T00:06:16.962Z,0.80
2022-11-22T00:08:45.135Z,0.60
2022-11-22T00:11:13.409Z,0.60
2022-11-22T00:13:41.607Z,1.13
2022-11-22T00:16:09.912Z,0.63
2022-11-22T00:18:39.556Z,0.67
2022-11-22T00:21:09.046Z,1.03
2022-11-22T00:23:37.401Z,0.67
2022-11-22T00:26:07.145Z,0.60
2022-11-22T00:28:35.449Z,0.97
2022-11-22T00:31:03.772Z,0.70
2022-11-22T00:33:32.057Z,0.70
2022-11-22T00:36:01.784Z,0.70
2022-11-22T00:38:30.668Z,0.87
2022-11-22T00:40:58.934Z,1.37
2022-11-22T00:43:27.158Z,0.97
2022-11-22T00:45:55.467Z,0.87
2022-11-22T00:48:23.752Z,0.60
2022-11-22T00:50:52.050Z,1.03
2022-11-22T00:53:21.876Z,0.63
2022-11-22T00:55:50.364Z,0.80
2022-11-22T00:58:18.941Z,0.53
2022-11-22T01:00:49.132Z,0.70
2022-11-22T01:03:20.337Z,0.80
2022-11-22T01:05:48.671Z,0.70
2022-11-22T01:08:16.947Z,0.67
2022-11-22T01:10:46.595Z,1.40
2022-11-22T01:13:15.376Z,0.67
2022-11-22T01:15:43.560Z,0.60
2022-11-22T01:18:11.773Z,0.70
2022-11-22T01:20:41.747Z,0.90
2022-11-22T01:23:10.002Z,0.60
2022-11-22T01:25:38.202Z,0.40
2022-11-22T01:28:07.907Z,1.13
2022-11-22T01:30:36.255Z,0.73
2022-11-22T01:33:04.717Z,0.40
2022-11-22T01:35:32.963Z,0.73
2022-11-22T01:38:01.165Z,0.50
2022-11-22T01:40:29.964Z,0.60
2022-11-22T01:42:59.471Z,0.67
2022-11-22T01:45:46.591Z,0.60
2022-11-22T01:48:36.915Z,0.53
2022-11-22T01:51:10.911Z,0.30
2022-11-22T01:53:41.090Z,0.37
2022-11-22T01:56:14.484Z,0.30
2022-11-22T01:58:44.565Z,0.90
2022-11-22T02:01:22.659Z,0.40
2022-11-22T02:03:57.707Z,0.50
2022-11-22T02:06:33.917Z,0.50
2022-11-22T02:09:07.450Z,0.57
2022-11-22T02:11:39.612Z,0.47
2022-11-22T02:14:10.256Z,0.40
2022-11-22T02:17:15.550Z,0.40
2022-11-22T02:19:47.854Z,0.40
2022-11-22T02:22:26.953Z,0.30
2022-11-22T02:24:58.621Z,0.40
2022-11-22T02:27:28.455Z,0.20
2022-11-22T02:29:56.758Z,0.33
2022-11-22T02:32:25.347Z,0.30
2022-11-22T02:34:53.608Z,0.80
2022-11-22T02:37:26.652Z,0.63
2022-11-22T02:40:00.342Z,0.43
2022-11-22T02:42:32.165Z,0.70
2022-11-22T02:45:01.513Z,0.40
2022-11-22T02:47:29.668Z,0.30
2022-11-22T02:49:57.920Z,0.33
2022-11-22T02:52:26.148Z,0.57
2022-11-22T02:54:54.513Z,0.40
2022-11-22T02:57:23.961Z,0.40
2022-11-22T02:59:53.653Z,0.30
2022-11-22T03:02:21.824Z,0.40
2022-11-22T03:04:50.747Z,0.37
2022-11-22T03:07:19.049Z,0.40
2022-11-22T03:09:47.446Z,0.23
2022-11-22T03:12:15.619Z,0.40
2022-11-22T03:14:44.065Z,0.40
2022-11-22T03:17:14.338Z,0.60
2022-11-22T03:19:42.700Z,0.40
2022-11-22T03:22:11.702Z,0.57
2022-11-22T03:24:40.146Z,0.70
2022-11-22T03:27:09.399Z,0.37
2022-11-22T03:29:37.769Z,0.77
2022-11-22T03:32:06.199Z,0.50
2022-11-22T03:34:35.940Z,0.40
2022-11-22T03:37:04.206Z,0.60
2022-11-22T03:39:32.723Z,0.47
2022-11-22T03:42:00.961Z,0.30
2022-11-22T03:44:29.237Z,0.50
2022-11-22T03:46:57.452Z,0.50
2022-11-22T03:49:25.840Z,0.40
2022-11-22T03:51:55.498Z,0.40
2022-11-22T03:54:23.715Z,0.40
2022-11-22T03:56:51.997Z,0.50
2022-11-22T03:59:20.346Z,0.83
2022-11-22T04:01:48.745Z,0.50
2022-11-22T04:04:17.091Z,0.50
2022-11-22T04:06:45.380Z,0.40
2022-11-22T04:09:15.133Z,0.40
2022-11-22T04:11:43.445Z,0.60
2022-11-22T04:14:30.390Z,1.43
2022-11-22T04:16:58.693Z,0.63
2022-11-22T04:19:27.053Z,0.87
2022-11-22T04:21:54.531Z,0.60
2022-11-22T04:24:47.960Z,0.40
2022-11-22T04:27:16.264Z,1.20
2022-11-22T04:35:52.435Z,0.40
2022-11-22T04:38:20.819Z,0.40
2022-11-22T04:40:50.696Z,0.67
2022-11-22T04:43:39.351Z,0.20
2022-11-22T04:46:07.739Z,0.30
2022-11-22T04:48:36.274Z,0.30
2022-11-22T04:51:22.163Z,0.30
2022-11-22T04:53:50.499Z,0.40
2022-11-22T04:56:20.623Z,0.10
2022-11-22T04:58:51.532Z,0.30
2022-11-22T05:01:24.757Z,0.20
2022-11-22T05:03:56.678Z,0.20
2022-11-22T05:06:24.944Z,0.10
2022-11-22T05:08:53.195Z,0.30
2022-11-22T05:11:22.893Z,0.30
2022-11-22T05:13:51.177Z,0.20
2022-11-22T05:16:19.558Z,0.10
2022-11-22T05:18:59.353Z,0.13
2022-11-22T05:21:29.152Z,0.20
2022-11-22T05:23:56.849Z,0.30
2022-11-22T05:26:28.545Z,0.70
2022-11-22T05:28:58.144Z,0.77
2022-11-22T05:31:28.439Z,0.40
2022-11-22T05:33:58.004Z,1.10
2022-11-22T05:36:26.728Z,2.10
2022-11-22T05:38:55.868Z,1.73
2022-11-22T05:41:24.091Z,1.90
2022-11-22T05:43:55.443Z,1.73
2022-11-22T05:46:26.472Z,0.80
2022-11-22T05:48:56.304Z,0.80
2022-11-22T05:51:32.512Z,0.60
2022-11-22T05:54:02.646Z,0.80
2022-11-22T05:56:31.927Z,0.97
2022-11-22T05:59:01.702Z,2.03
2022-11-22T06:01:30.125Z,0.50
2022-11-22T06:03:58.485Z,1.53
2022-11-22T06:06:26.752Z,1.67
2022-11-22T06:08:55.146Z,0.40
2022-11-22T06:11:24.906Z,0.40
2022-11-22T06:13:54.770Z,0.20
2022-11-22T06:16:24.819Z,0.17
2022-11-22T06:18:54.500Z,0.10
2022-11-22T06:21:25.239Z,0.20
2022-11-22T06:23:55.116Z,0.10
2022-11-22T06:26:25.277Z,0.17
2022-11-22T06:28:54.919Z,0.10
2022-11-22T06:31:26.632Z,0.10
2022-11-22T06:33:56.204Z,0.10
2022-11-22T06:36:25.977Z,0.10
2022-11-22T06:38:54.851Z,0.07
2022-11-22T06:41:25.861Z,0.10
2022-11-22T06:43:56.335Z,0.10
2022-11-22T06:46:28.307Z,0.10
2022-11-22T06:48:56.702Z,0.10
2022-11-22T06:51:27.440Z,0.20
2022-11-22T06:53:56.549Z,0.10
2022-11-22T06:56:26.371Z,0.10
2022-11-22T06:58:55.597Z,0.10
2022-11-22T07:01:26.008Z,0.20
2022-11-22T07:03:58.613Z,0.30
2022-11-22T07:06:28.540Z,0.50
2022-11-22T07:08:57.388Z,0.40
2022-11-22T07:11:28.289Z,0.60
2022-11-22T07:14:01.890Z,0.90
2022-11-22T07:16:35.282Z,1.57
2022-11-22T07:19:05.332Z,1.30
2022-11-22T07:21:33.786Z,1.13
2022-11-22T07:24:02.962Z,0.83
2022-11-22T07:26:31.331Z,0.40
2022-11-22T07:28:59.492Z,0.20
2022-11-22T07:31:28.409Z,0.20
2022-11-22T07:33:58.601Z,0.23
2022-11-22T07:36:29.729Z,0.10
2022-11-22T07:38:58.070Z,0.20
2022-11-22T07:41:26.377Z,0.20
2022-11-22T07:43:54.793Z,0.10
2022-11-22T07:46:26.383Z,0.10
2022-11-22T07:48:54.776Z,0.10
2022-11-22T07:51:23.188Z,0.20
2022-11-22T07:53:53.179Z,0.30
2022-11-22T07:56:21.535Z,0.23
2022-11-22T07:58:50.396Z,0.30
2022-11-22T08:01:20.252Z,0.60
2022-11-22T08:03:48.920Z,0.50
2022-11-22T08:06:17.745Z,0.70
2022-11-22T08:08:46.227Z,0.70
2022-11-22T08:11:15.875Z,0.97
2022-11-22T08:13:44.735Z,0.50
2022-11-22T08:16:16.473Z,0.30
2022-11-22T08:18:48.844Z,0.40
2022-11-22T08:21:19.635Z,0.17
2022-11-22T08:23:49.162Z,0.10
2022-11-22T08:26:21.221Z,0.27
2022-11-22T08:28:49.490Z,0.40
2022-11-22T08:31:19.901Z,0.60
2022-11-22T08:33:49.119Z,0.70
2022-11-22T08:36:17.371Z,0.47
2022-11-22T08:38:45.957Z,0.70
2022-11-22T08:41:14.585Z,0.30
2022-11-22T08:43:44.257Z,0.20
2022-11-22T08:46:13.041Z,0.23
2022-11-22T08:48:41.364Z,0.20
2022-11-22T08:51:11.475Z,0.40
2022-11-22T08:53:41.482Z,0.80
2022-11-22T08:56:12.368Z,0.50
2022-11-22T08:58:41.134Z,0.60
2022-11-22T09:01:13.386Z,0.70
2022-11-22T09:03:42.625Z,0.40
2022-11-22T09:11:49.705Z,0.20
2022-11-22T09:14:18.006Z,0.20
2022-11-22T09:16:47.707Z,0.20
2022-11-22T09:19:15.995Z,0.23
2022-11-22T09:21:44.324Z,0.20
2022-11-22T09:24:12.516Z,0.10
2022-11-22T09:26:40.837Z,0.00
2022-11-22T09:29:09.073Z,0.20
2022-11-22T09:31:37.368Z,0.20
2022-11-22T09:34:08.139Z,0.10
2022-11-22T09:36:36.444Z,0.10
2022-11-22T09:39:04.959Z,0.30
2022-11-22T09:41:57.107Z,0.27
2022-11-22T09:44:37.155Z,0.20
2022-11-22T09:47:15.783Z,0.10
2022-11-22T09:49:54.538Z,0.10
2022-11-22T09:52:29.389Z,0.20
2022-11-22T09:55:03.172Z,0.20
2022-11-22T09:57:38.587Z,0.10
2022-11-22T10:00:09.230Z,0.20
2022-11-22T10:02:59.918Z,0.20
2022-11-22T10:05:36.168Z,0.20
2022-11-22T10:08:17.707Z,0.50
2022-11-22T10:11:34.894Z,0.10
2022-11-22T10:14:51.742Z,0.10
2022-11-22T10:17:33.587Z,0.57
2022-11-22T10:20:07.399Z,0.30
2022-11-22T10:22:37.068Z,0.10
2022-11-22T10:25:15.713Z,0.20
2022-11-22T10:27:44.504Z,0.10
2022-11-22T10:30:17.787Z,0.10
2022-11-22T10:32:57.524Z,0.13
2022-11-22T10:35:41.477Z,0.10
2022-11-22T10:38:34.420Z,0.17
2022-11-22T10:41:12.122Z,0.10
2022-11-22T10:43:47.170Z,0.10
2022-11-22T10:46:23.000Z,0.10
2022-11-22T10:49:00.076Z,0.03
2022-11-22T10:51:34.630Z,0.60
2022-11-22T10:54:16.713Z,0.00
2022-11-22T10:56:51.328Z,0.00
2022-11-22T10:59:34.807Z,0.10
2022-11-22T11:02:19.244Z,0.00
2022-11-22T11:04:48.923Z,0.20
2022-11-22T11:07:21.927Z,0.00
2022-11-22T11:10:10.640Z,0.00
2022-11-22T11:12:43.474Z,0.00
2022-11-22T11:15:18.840Z,0.00
2022-11-22T11:17:51.006Z,0.10
2022-11-22T11:20:24.792Z,0.10
2022-11-22T11:25:43.796Z,0.10
2022-11-22T11:28:18.593Z,0.10
2022-11-22T11:30:49.787Z,0.80
2022-11-22T11:33:21.832Z,0.50
2022-11-22T11:35:50.069Z,0.30
2022-11-22T11:38:29.037Z,0.50
2022-11-22T11:40:59.198Z,0.40
2022-11-22T11:43:27.459Z,0.30
2022-11-22T11:45:55.757Z,0.20
2022-11-22T11:48:41.182Z,0.10
2022-11-22T11:51:16.259Z,0.33
2022-11-22T11:53:53.092Z,0.10
2022-11-22T11:56:33.514Z,0.00
2022-11-22T11:59:08.183Z,0.00
2022-11-22T12:01:39.084Z,0.10
2022-11-22T12:04:08.503Z,0.00
2022-11-22T12:06:36.697Z,0.20
2022-11-22T12:09:28.175Z,0.27
2022-11-22T12:12:03.763Z,0.20
2022-11-22T12:14:55.543Z,0.30
2022-11-22T12:17:27.862Z,0.20
2022-11-22T12:20:04.064Z,0.20
2022-11-22T12:22:52.960Z,0.10
2022-11-22T12:25:35.384Z,0.30
2022-11-22T12:28:18.690Z,0.00
2022-11-22T12:30:53.583Z,0.10
2022-11-22T12:33:30.841Z,0.30
2022-11-22T12:35:59.579Z,0.30
2022-11-22T12:38:33.784Z,0.10
2022-11-22T12:41:06.985Z,0.20
2022-11-22T12:43:44.084Z,0.40
2022-11-22T12:46:18.055Z,0.30
2022-11-22T12:48:49.975Z,0.13
2022-11-22T12:51:26.264Z,0.20
2022-11-22T12:53:58.857Z,0.20
2022-11-22T12:56:33.373Z,0.30
2022-11-22T12:59:12.884Z,0.43
2022-11-22T13:01:49.479Z,0.20
2022-11-22T13:04:25.376Z,0.50
2022-11-22T13:06:59.203Z,0.20
2022-11-22T13:09:33.532Z,0.40
2022-11-22T13:12:06.714Z,0.30
2022-11-22T13:14:41.984Z,0.60
2022-11-22T13:17:12.268Z,0.30
2022-11-22T13:19:46.840Z,0.60
2022-11-22T13:22:23.165Z,0.50
2022-11-22T13:25:04.648Z,0.50
2022-11-22T13:27:36.375Z,0.20
2022-11-22T13:30:06.959Z,0.27
2022-11-22T13:32:36.864Z,0.30
2022-11-22T13:35:18.545Z,0.20
2022-11-22T13:37:48.593Z,0.33
2022-11-22T13:40:26.494Z,0.27
2022-11-22T13:43:32.068Z,0.20
2022-11-22T13:46:04.416Z,0.20
2022-11-22T13:49:05.957Z,0.43
2022-11-22T13:51:57.106Z,0.50
2022-11-22T13:54:58.350Z,0.20
2022-11-22T13:57:30.869Z,0.40
2022-11-22T14:00:40.452Z,0.20
2022-11-22T14:03:36.011Z,0.30
2022-11-22T14:06:22.360Z,0.27
2022-11-22T14:08:50.712Z,0.20
2022-11-22T14:11:36.425Z,0.37
2022-11-22T14:14:19.815Z,0.20
2022-11-22T14:17:04.966Z,0.20
2022-11-22T14:19:50.192Z,0.10
2022-11-22T14:22:25.564Z,0.30
2022-11-22T14:25:18.219Z,0.20
2022-11-22T14:27:54.992Z,0.40
2022-11-22T14:30:41.364Z,0.20
2022-11-22T14:33:20.433Z,0.20
2022-11-22T14:36:18.034Z,0.40
2022-11-22T14:38:48.482Z,0.37
2022-11-22T14:41:41.814Z,0.50
2022-11-22T14:44:14.642Z,0.23
2022-11-22T14:46:53.886Z,0.30
2022-11-22T14:49:34.182Z,0.30
2022-11-22T14:52:04.134Z,0.10
2022-11-22T14:54:44.173Z,0.47
2022-11-22T14:57:18.432Z,0.40
2022-11-22T15:00:05.796Z,0.50
2022-11-22T15:03:06.139Z,0.40
2022-11-22T15:09:10.678Z,0.50
2022-11-22T15:09:20.509Z,0.50
2022-11-22T15:12:06.698Z,0.43
2022-11-22T15:58:13.989Z,0.30
2022-11-22T16:00:45.250Z,0.30
2022-11-22T16:03:25.755Z,0.30
2022-11-22T16:06:05.855Z,0.30
2022-11-22T16:08:40.227Z,0.27
2022-11-22T16:11:08.563Z,0.50
2022-11-22T16:13:40.050Z,0.50
2022-11-22T16:16:19.593Z,0.30
2022-11-22T16:18:48.940Z,0.20
2022-11-22T16:21:27.863Z,0.10
2022-11-22T16:24:18.337Z,0.10
2022-11-22T16:26:56.425Z,0.03
2022-11-22T16:29:32.350Z,1.50
2022-11-22T16:32:06.694Z,0.10
2022-11-22T16:34:34.998Z,0.20
2022-11-22T16:37:03.654Z,0.13
2022-11-22T16:39:33.848Z,0.20
2022-11-22T16:42:04.930Z,0.90
2022-11-22T16:44:34.970Z,0.90
2022-11-22T16:47:03.210Z,3.20
2022-11-22T16:49:33.822Z,3.30
2022-11-22T16:52:03.190Z,1.70
2022-11-22T16:54:36.484Z,2.03
2022-11-22T16:57:07.291Z,1.83
2022-11-22T16:59:36.936Z,0.87
2022-11-22T17:02:07.686Z,0.70
2022-11-22T17:04:40.939Z,1.30
2022-11-22T17:07:10.856Z,1.50
2022-11-22T17:09:39.120Z,0.80
2022-11-22T17:12:14.293Z,2.43
2022-11-22T17:14:46.075Z,1.20
2022-11-22T17:17:14.660Z,2.17
2022-11-22T17:19:53.202Z,1.77
2022-11-22T17:22:22.414Z,5.43
2022-11-22T17:24:50.944Z,3.93
2022-11-22T17:27:19.297Z,1.63
2022-11-22T17:29:50.974Z,1.60
2022-11-22T17:32:20.131Z,12.27
2022-11-22T17:34:48.499Z,11.57
2022-11-22T17:37:16.815Z,10.23
2022-11-22T17:39:45.128Z,7.67
2022-11-22T17:42:15.457Z,4.37
2022-11-22T17:44:45.183Z,2.23
2022-11-22T17:47:14.868Z,2.07
2022-11-22T17:49:43.290Z,2.70
2022-11-22T17:52:11.510Z,2.13
2022-11-22T17:54:40.011Z,3.30
2022-11-22T17:57:08.339Z,2.07
2022-11-22T17:59:37.634Z,1.60
2022-11-22T18:02:06.024Z,4.17
2022-11-22T18:04:35.727Z,1.60
2022-11-22T18:07:04.082Z,0.90
2022-11-22T18:09:34.671Z,1.00
2022-11-22T18:12:03.104Z,0.50
2022-11-22T18:14:31.524Z,0.50
2022-11-22T18:17:00.561Z,0.37
2022-11-22T18:19:29.138Z,0.50
2022-11-22T18:21:59.062Z,0.30
2022-11-22T18:24:27.355Z,0.67
2022-11-22T18:26:56.000Z,0.80
2022-11-22T18:29:41.574Z,0.50
2022-11-22T18:32:11.386Z,2.07
2022-11-22T18:34:40.067Z,2.97
2022-11-22T18:37:09.741Z,3.00
2022-11-22T18:39:39.785Z,1.70
2022-11-22T18:42:11.366Z,1.40
2022-11-22T18:44:39.685Z,1.67
2022-11-22T18:47:08.110Z,0.70
2022-11-22T18:49:36.928Z,0.80
2022-11-22T18:52:05.734Z,1.17
2022-11-22T18:54:35.717Z,2.60
2022-11-22T18:57:04.305Z,1.37
2022-11-22T18:59:32.603Z,1.73
2022-11-22T19:02:00.847Z,1.47
2022-11-22T19:04:29.865Z,2.13
2022-11-22T19:06:58.595Z,1.53
2022-11-22T19:09:26.919Z,1.73
2022-11-22T19:11:58.643Z,0.73
2022-11-22T19:14:29.190Z,0.50
2022-11-22T19:16:58.939Z,4.47
2022-11-22T19:19:27.779Z,6.87
2022-11-22T19:21:56.000Z,5.80
2022-11-22T19:24:24.231Z,2.93
2022-11-22T19:26:52.541Z,1.93
2022-11-22T19:29:22.312Z,3.53
2022-11-22T19:31:50.771Z,2.60
2022-11-22T19:34:19.116Z,1.40
2022-11-22T19:36:47.428Z,1.10
2022-11-22T19:39:16.508Z,1.30
2022-11-22T19:41:46.120Z,1.30
2022-11-22T19:44:14.538Z,1.33
2022-11-22T19:46:44.257Z,1.20
2022-11-22T19:49:12.548Z,1.17
2022-11-22T19:51:40.995Z,1.20
2022-11-22T19:54:09.384Z,1.70
2022-11-22T19:56:39.269Z,1.33
2022-11-22T19:59:10.466Z,1.10
2022-11-22T20:01:39.858Z,1.03
2022-11-22T20:04:10.315Z,0.97
2022-11-22T20:06:38.677Z,1.07
2022-11-22T20:09:09.897Z,1.00
2022-11-22T20:11:41.601Z,1.20
2022-11-22T20:14:10.788Z,1.10
2022-11-22T20:16:41.352Z,1.77
2022-11-22T20:19:12.531Z,2.30
2022-11-22T20:21:41.464Z,2.40
2022-11-22T20:24:10.130Z,2.47
2022-11-22T20:26:38.542Z,2.93
2022-11-22T20:29:08.952Z,2.20
2022-11-22T20:31:38.024Z,2.50
2022-11-22T20:34:06.267Z,5.03
2022-11-22T20:36:36.783Z,5.30
2022-11-22T20:39:10.440Z,4.27
2022-11-22T20:41:40.070Z,3.80
2022-11-22T20:44:10.032Z,3.70
2022-11-22T20:46:38.872Z,3.13
2022-11-22T20:49:07.659Z,3.00
2022-11-22T20:51:39.900Z,3.53
2022-11-22T20:54:08.871Z,2.90
2022-11-22T20:56:37.441Z,2.90
2022-11-22T20:59:05.929Z,2.50
2022-11-22T21:01:34.338Z,3.13
2022-11-22T21:04:04.370Z,2.60
2022-11-22T21:06:34.977Z,2.10
2022-11-22T21:09:05.153Z,3.10
2022-11-22T21:11:33.476Z,3.07
2022-11-22T21:14:01.747Z,3.30
2022-11-22T21:16:30.939Z,3.13
2022-11-22T21:19:01.887Z,2.93
2022-11-22T21:21:31.132Z,2.60
2022-11-22T21:24:00.921Z,3.40
2022-11-22T21:26:31.084Z,2.90
2022-11-22T21:29:00.573Z,2.73
2022-11-22T21:31:29.271Z,3.40
2022-11-22T21:33:58.670Z,3.20
2022-11-22T21:36:27.065Z,3.63
2022-11-22T21:38:55.448Z,3.57
2022-11-22T21:41:40.559Z,3.33
2022-11-22T21:44:11.188Z,3.13
2022-11-22T21:46:39.871Z,3.73
2022-11-22T21:49:08.567Z,4.33
2022-11-22T21:51:36.800Z,8.80
2022-11-22T21:54:06.032Z,7.50
2022-11-22T21:56:35.600Z,6.90
2022-11-22T21:59:04.035Z,5.90
2022-11-22T22:01:36.170Z,4.70
2022-11-22T22:04:04.782Z,4.93
2022-11-22T22:06:33.183Z,5.00
2022-11-22T22:09:01.628Z,4.87
2022-11-22T22:11:29.832Z,5.00
2022-11-22T22:13:59.029Z,6.27
2022-11-22T22:16:27.303Z,6.17
2022-11-22T22:18:57.018Z,5.80
2022-11-22T22:21:25.278Z,4.90
2022-11-22T22:23:54.052Z,5.37
2022-11-22T22:26:22.387Z,4.10
2022-11-22T22:28:50.758Z,4.70
2022-11-22T22:31:22.365Z,4.63
2022-11-22T22:33:52.205Z,5.10
2022-11-22T22:36:22.523Z,5.30
2022-11-22T22:38:50.959Z,5.27
2022-11-22T22:41:19.687Z,5.77
2022-11-22T22:43:49.716Z,5.53
2022-11-22T22:46:20.305Z,4.70
2022-11-22T22:48:50.171Z,5.73
2022-11-22T22:51:20.139Z,6.10
2022-11-22T22:53:50.304Z,6.50
2022-11-22T22:56:20.277Z,6.70
2022-11-22T22:58:49.005Z,5.27
2022-11-22T23:01:21.523Z,5.90
2022-11-22T23:03:53.239Z,7.17
2022-11-22T23:06:23.327Z,7.00
2022-11-22T23:08:54.653Z,6.47
2022-11-22T23:11:45.299Z,5.70
2022-11-22T23:14:14.922Z,5.87
2022-11-22T23:16:43.472Z,5.77
2022-11-22T23:19:12.135Z,4.23
2022-11-22T23:21:40.905Z,5.33
2022-11-22T23:24:10.895Z,5.67
2022-11-22T23:26:39.479Z,5.57
2022-11-22T23:29:07.737Z,4.90
2022-11-22T23:31:36.201Z,5.20
2022-11-22T23:34:04.651Z,5.87
2022-11-22T23:36:37.399Z,4.33
2022-11-22T23:39:10.331Z,3.43
2022-11-22T23:41:38.769Z,4.20
2022-11-22T23:44:08.400Z,4.47
2022-11-22T23:46:36.600Z,3.90
2022-11-22T23:49:05.541Z,4.67
2022-11-22T23:51:34.694Z,5.37
2022-11-22T23:54:04.624Z,6.63
2022-11-22T23:56:36.448Z,4.97
2022-11-22T23:59:06.617Z,4.20
